createdAt,value
2018-09-20T00:02:15.153Z,99766.00
2018-09-20T00:04:43.312Z,99763.00
2018-09-20T00:07:11.647Z,99767.00
2018-09-20T00:09:39.681Z,99768.00
2018-09-20T00:12:07.808Z,99768.00
2018-09-20T00:14:35.993Z,99766.00
2018-09-20T00:17:04.137Z,99759.00
2018-09-20T00:19:32.317Z,99757.00
2018-09-20T00:22:00.476Z,99758.00
2018-09-20T00:24:28.692Z,99758.00
2018-09-20T00:26:56.824Z,99756.00
2018-09-20T00:29:25.115Z,99752.00
2018-09-20T00:31:54.046Z,99759.00
2018-09-20T00:34:22.286Z,99762.00
2018-09-20T00:36:50.518Z,99766.00
2018-09-20T00:39:18.706Z,99757.00
2018-09-20T00:41:46.870Z,99757.00
2018-09-20T00:44:15.009Z,99757.00
2018-09-20T00:46:43.086Z,99755.00
2018-09-20T00:49:11.312Z,99755.00
2018-09-20T00:51:39.425Z,99757.00
2018-09-20T00:54:07.525Z,99759.00
2018-09-20T00:56:35.674Z,99762.00
2018-09-20T00:59:03.875Z,99762.00
2018-09-20T01:01:32.032Z,99756.00
2018-09-20T01:04:00.144Z,99759.00
2018-09-20T01:06:28.212Z,99761.00
2018-09-20T01:08:56.387Z,99761.00
2018-09-20T01:11:24.509Z,99757.00
2018-09-20T01:13:52.709Z,99759.00
2018-09-20T01:16:20.905Z,99759.00
2018-09-20T01:18:49.141Z,99759.00
2018-09-20T01:21:17.341Z,99761.00
2018-09-20T01:23:45.623Z,99764.00
2018-09-20T01:26:13.889Z,99754.00
2018-09-20T01:28:42.093Z,99752.00
2018-09-20T01:31:10.521Z,99756.00
2018-09-20T01:33:38.618Z,99756.00
2018-09-20T01:36:06.855Z,99756.00
2018-09-20T01:38:35.008Z,99760.00
2018-09-20T01:41:03.285Z,99766.00
2018-09-20T01:43:31.447Z,99765.00
2018-09-20T01:45:59.816Z,99759.00
2018-09-20T01:48:28.008Z,99757.00
2018-09-20T01:50:56.155Z,99752.00
2018-09-20T01:53:24.286Z,99748.00
2018-09-20T01:55:52.490Z,99750.00
2018-09-20T01:58:20.608Z,99753.00
2018-09-20T02:00:49.372Z,99757.00
2018-09-20T02:03:17.830Z,99756.00
2018-09-20T02:05:46.152Z,99754.00
2018-09-20T02:08:14.396Z,99755.00
2018-09-20T02:10:42.626Z,99754.00
2018-09-20T02:13:10.693Z,99756.00
2018-09-20T02:15:38.813Z,99757.00
2018-09-20T02:18:07.536Z,99757.00
2018-09-20T02:20:36.245Z,99763.00
2018-09-20T02:23:04.430Z,99760.00
2018-09-20T02:25:32.908Z,99760.00
2018-09-20T02:28:01.026Z,99757.00
2018-09-20T02:30:29.137Z,99759.00
2018-09-20T02:32:57.311Z,99756.00
2018-09-20T02:35:25.386Z,99760.00
2018-09-20T02:37:53.831Z,99756.00
2018-09-20T02:40:22.566Z,99759.00
2018-09-20T02:42:50.769Z,99754.00
2018-09-20T02:45:19.026Z,99753.00
2018-09-20T02:47:47.145Z,99751.00
2018-09-20T02:50:15.268Z,99744.00
2018-09-20T02:52:43.429Z,99752.00
2018-09-20T02:55:11.453Z,99756.00
2018-09-20T02:57:39.737Z,99758.00
2018-09-20T03:00:07.891Z,99764.00
2018-09-20T03:02:36.072Z,99768.00
2018-09-20T03:05:04.506Z,99761.00
2018-09-20T03:07:32.568Z,99760.00
2018-09-20T03:10:00.683Z,99758.00
2018-09-20T03:12:28.813Z,99757.00
2018-09-20T03:14:57.310Z,99761.00
2018-09-20T03:17:25.384Z,99765.00
2018-09-20T03:19:53.704Z,99763.00
2018-09-20T03:22:21.905Z,99766.00
2018-09-20T03:24:50.113Z,99768.00
2018-09-20T03:27:18.342Z,99773.00
2018-09-20T03:29:46.543Z,99768.00
2018-09-20T03:32:14.760Z,99769.00
2018-09-20T03:34:42.922Z,99771.00
2018-09-20T03:37:11.353Z,99769.00
2018-09-20T03:39:39.447Z,99769.00
2018-09-20T03:42:07.689Z,99770.00
2018-09-20T03:44:35.728Z,99768.00
2018-09-20T03:47:04.168Z,99767.00
2018-09-20T03:49:33.066Z,99768.00
2018-09-20T03:52:01.300Z,99767.00
2018-09-20T03:54:29.512Z,99767.00
2018-09-20T03:56:57.757Z,99768.00
2018-09-20T03:59:25.964Z,99763.00
2018-09-20T04:01:54.062Z,99773.00
2018-09-20T04:04:22.265Z,99772.00
2018-09-20T04:06:50.439Z,99775.00
2018-09-20T04:09:18.591Z,99778.00
2018-09-20T04:11:46.755Z,99778.00
2018-09-20T04:14:14.899Z,99783.00
2018-09-20T04:16:43.129Z,99786.00
2018-09-20T04:19:11.338Z,99778.00
2018-09-20T04:21:39.568Z,99779.00
2018-09-20T04:24:07.618Z,99774.00
2018-09-20T04:26:36.918Z,99773.00
2018-09-20T04:29:05.208Z,99772.00
2018-09-20T04:31:33.415Z,99775.00
2018-09-20T04:34:01.901Z,99773.00
2018-09-20T04:36:30.624Z,99777.00
2018-09-20T04:38:58.904Z,99773.00
2018-09-20T04:41:27.077Z,99785.00
2018-09-20T04:43:55.275Z,99786.00
2018-09-20T04:46:23.487Z,99790.00
2018-09-20T04:48:51.601Z,99793.00
2018-09-20T04:51:20.178Z,99794.00
2018-09-20T04:53:48.387Z,99799.00
2018-09-20T04:56:16.524Z,99800.00
2018-09-20T04:58:44.849Z,99803.00
2018-09-20T05:01:13.077Z,99803.00
2018-09-20T05:03:41.272Z,99803.00
2018-09-20T05:06:09.404Z,99802.00
2018-09-20T05:08:37.563Z,99804.00
2018-09-20T05:11:05.784Z,99806.00
2018-09-20T05:13:34.217Z,99814.00
2018-09-20T05:16:02.438Z,99808.00
2018-09-20T05:18:30.503Z,99807.00
2018-09-20T05:20:58.613Z,99809.00
2018-09-20T05:23:26.903Z,99810.00
2018-09-20T05:25:55.066Z,99816.00
2018-09-20T05:28:23.325Z,99817.00
2018-09-20T05:30:51.575Z,99820.00
2018-09-20T05:33:19.889Z,99825.00
2018-09-20T05:35:48.137Z,99823.00
2018-09-20T05:38:16.368Z,99827.00
2018-09-20T05:40:44.654Z,99822.00
2018-09-20T05:43:12.832Z,99823.00
2018-09-20T05:45:41.038Z,99816.00
2018-09-20T05:48:09.230Z,99819.00
2018-09-20T05:50:37.361Z,99822.00
2018-09-20T05:53:05.633Z,99817.00
2018-09-20T05:55:33.740Z,99817.00
2018-09-20T05:58:01.878Z,99818.00
2018-09-20T06:00:29.986Z,99813.00
2018-09-20T06:02:58.104Z,99810.00
2018-09-20T06:05:26.372Z,99808.00
2018-09-20T06:07:54.439Z,99807.00
2018-09-20T06:10:23.104Z,99804.00
2018-09-20T06:12:51.233Z,99811.00
2018-09-20T06:15:19.367Z,99808.00
2018-09-20T06:17:47.479Z,99808.00
2018-09-20T06:20:15.564Z,99810.00
2018-09-20T06:22:43.770Z,99816.00
2018-09-20T06:25:12.011Z,99818.00
2018-09-20T06:27:40.193Z,99822.00
2018-09-20T06:30:08.309Z,99818.00
2018-09-20T06:32:36.472Z,99813.00
2018-09-20T06:35:04.673Z,99818.00
2018-09-20T06:37:32.787Z,99815.00
2018-09-20T06:40:00.995Z,99820.00
2018-09-20T06:42:29.134Z,99818.00
2018-09-20T06:44:57.289Z,99818.00
2018-09-20T06:47:25.552Z,99818.00
2018-09-20T06:49:53.610Z,99841.00
2018-09-20T06:52:22.170Z,99831.00
2018-09-20T06:54:50.433Z,99835.00
2018-09-20T06:57:18.591Z,99823.00
2018-09-20T06:59:46.682Z,99821.00
2018-09-20T07:02:14.768Z,99810.00
2018-09-20T07:04:42.890Z,99806.00
2018-09-20T07:07:11.177Z,99807.00
2018-09-20T07:09:39.265Z,99810.00
2018-09-20T07:12:07.363Z,99813.00
2018-09-20T07:14:35.468Z,99810.00
2018-09-20T07:17:03.936Z,99806.00
2018-09-20T07:19:32.004Z,99808.00
2018-09-20T07:22:00.104Z,99812.00
2018-09-20T07:24:28.422Z,99809.00
2018-09-20T07:26:56.562Z,99813.00
2018-09-20T07:29:24.606Z,99808.00
2018-09-20T07:31:52.797Z,99808.00
2018-09-20T07:34:21.101Z,99804.00
2018-09-20T07:36:49.707Z,99793.00
2018-09-20T07:39:17.889Z,99793.00
2018-09-20T07:41:46.024Z,99782.00
2018-09-20T07:44:14.156Z,99784.00
2018-09-20T07:46:42.347Z,99781.00
2018-09-20T07:49:10.521Z,99782.00
2018-09-20T07:51:38.702Z,99787.00
2018-09-20T07:54:06.836Z,99805.00
2018-09-20T07:56:35.051Z,99799.00
2018-09-20T07:59:03.033Z,99791.00
2018-09-20T08:01:31.270Z,99780.00
2018-09-20T08:03:59.418Z,99774.00
2018-09-20T08:06:27.599Z,99778.00
2018-09-20T08:08:55.752Z,99775.00
2018-09-20T08:11:23.784Z,99756.00
2018-09-20T08:13:52.716Z,99761.00
2018-09-20T08:16:20.869Z,99759.00
2018-09-20T08:18:49.053Z,99749.00
2018-09-20T08:21:17.200Z,99758.00
2018-09-20T08:23:45.429Z,99756.00
2018-09-20T08:26:13.568Z,99769.00
2018-09-20T08:28:41.861Z,99771.00
2018-09-20T08:31:10.017Z,99785.00
2018-09-20T08:33:38.173Z,99780.00
2018-09-20T08:36:06.262Z,99778.00
2018-09-20T08:38:34.389Z,99762.00
2018-09-20T08:41:02.529Z,99762.00
2018-09-20T08:43:30.619Z,99778.00
2018-09-20T08:45:58.888Z,99773.00
2018-09-20T08:48:27.053Z,99778.00
2018-09-20T08:50:55.201Z,99776.00
2018-09-20T08:53:23.277Z,99769.00
2018-09-20T08:55:51.463Z,99769.00
2018-09-20T08:58:19.719Z,99771.00
2018-09-20T09:00:47.901Z,99765.00
2018-09-20T09:03:16.080Z,99761.00
2018-09-20T09:05:44.386Z,99757.00
2018-09-20T09:08:12.563Z,99754.00
2018-09-20T09:10:40.781Z,99750.00
2018-09-20T09:13:09.095Z,99747.00
2018-09-20T09:15:37.210Z,99745.00
2018-09-20T09:18:05.578Z,99741.00
2018-09-20T09:20:33.906Z,99735.00
2018-09-20T09:23:02.098Z,99730.00
2018-09-20T09:25:30.227Z,99712.00
2018-09-20T09:27:58.561Z,99692.00
2018-09-20T09:30:26.633Z,99693.00
2018-09-20T09:32:54.801Z,99694.00
2018-09-20T09:35:23.053Z,99693.00
2018-09-20T09:37:51.304Z,99687.00
2018-09-20T09:40:19.517Z,99682.00
2018-09-20T09:42:47.677Z,99684.00
2018-09-20T09:45:15.953Z,99681.00
2018-09-20T09:47:44.186Z,99684.00
2018-09-20T09:50:12.437Z,99681.00
2018-09-20T09:52:40.953Z,99679.00
2018-09-20T09:55:09.123Z,99687.00
2018-09-20T09:57:37.303Z,99686.00
2018-09-20T10:00:05.679Z,99684.00
2018-09-20T10:02:33.836Z,99684.00
2018-09-20T10:05:01.967Z,99676.00
2018-09-20T10:07:30.092Z,99678.00
2018-09-20T10:09:58.298Z,99671.00
2018-09-20T10:12:26.411Z,99660.00
2018-09-20T10:14:54.482Z,99659.00
2018-09-20T10:17:22.631Z,99656.00
2018-09-20T10:19:50.726Z,99659.00
2018-09-20T10:22:18.759Z,99662.00
2018-09-20T10:24:46.954Z,99658.00
2018-09-20T10:27:15.214Z,99640.00
2018-09-20T10:29:44.140Z,99640.00
2018-09-20T10:32:12.312Z,99635.00
2018-09-20T10:34:40.404Z,99629.00
2018-09-20T10:37:08.557Z,99623.00
2018-09-20T10:39:36.801Z,99609.00
2018-09-20T10:42:04.876Z,99620.00
2018-09-20T10:44:33.016Z,99621.00
2018-09-20T10:47:01.231Z,99593.00
2018-09-20T10:49:29.366Z,99613.00
2018-09-20T10:51:57.590Z,99607.00
2018-09-20T10:54:25.778Z,99598.00
2018-09-20T10:56:53.988Z,99597.00
2018-09-20T10:59:22.075Z,99586.00
2018-09-20T11:01:50.170Z,99585.00
2018-09-20T11:04:18.326Z,99579.00
2018-09-20T11:06:46.465Z,99580.00
2018-09-20T11:09:14.635Z,99570.00
2018-09-20T11:11:43.213Z,99564.00
2018-09-20T11:14:11.299Z,99558.00
2018-09-20T11:16:39.629Z,99556.00
2018-09-20T11:19:08.408Z,99552.00
2018-09-20T11:21:37.241Z,99554.00
2018-09-20T11:24:05.495Z,99546.00
2018-09-20T11:26:33.721Z,99539.00
2018-09-20T11:29:02.043Z,99546.00
2018-09-20T11:31:30.809Z,99532.00
2018-09-20T11:33:58.899Z,99541.00
2018-09-20T11:36:27.064Z,99537.00
2018-09-20T11:38:55.182Z,99534.00
2018-09-20T11:41:23.319Z,99520.00
2018-09-20T11:43:51.508Z,99516.00
2018-09-20T11:46:19.610Z,99513.00
2018-09-20T11:48:47.724Z,99511.00
2018-09-20T11:51:15.792Z,99519.00
2018-09-20T11:53:44.036Z,99519.00
2018-09-20T11:56:12.334Z,99521.00
2018-09-20T11:58:40.566Z,99528.00
2018-09-20T12:01:08.734Z,99522.00
2018-09-20T12:03:36.785Z,99513.00
2018-09-20T12:06:05.230Z,99512.00
2018-09-20T12:08:33.505Z,99495.00
2018-09-20T12:11:01.996Z,99492.00
2018-09-20T12:13:30.100Z,99497.00
2018-09-20T12:15:58.312Z,99487.00
2018-09-20T12:18:26.384Z,99486.00
2018-09-20T12:20:54.829Z,99473.00
2018-09-20T12:23:23.007Z,99488.00
2018-09-20T12:25:51.149Z,99477.00
2018-09-20T12:28:19.344Z,99473.00
2018-09-20T12:30:47.513Z,99462.00
2018-09-20T12:33:15.570Z,99467.00
2018-09-20T12:35:43.745Z,99465.00
2018-09-20T12:38:11.975Z,99460.00
2018-09-20T12:40:40.040Z,99448.00
2018-09-20T12:43:08.744Z,99454.00
2018-09-20T12:45:36.956Z,99450.00
2018-09-20T12:48:05.185Z,99448.00
2018-09-20T12:50:33.282Z,99446.00
2018-09-20T12:53:01.506Z,99419.00
2018-09-20T12:55:29.788Z,99445.00
2018-09-20T12:57:58.037Z,99434.00
2018-09-20T13:00:26.326Z,99424.00
2018-09-20T13:02:54.535Z,99422.00
2018-09-20T13:05:22.735Z,99422.00
2018-09-20T13:07:51.110Z,99418.00
2018-09-20T13:10:19.243Z,99412.00
2018-09-20T13:12:47.450Z,99408.00
2018-09-20T13:15:15.619Z,99415.00
2018-09-20T13:17:43.844Z,99417.00
2018-09-20T13:20:12.202Z,99415.00
2018-09-20T13:22:40.292Z,99408.00
2018-09-20T13:25:08.527Z,99413.00
2018-09-20T13:27:36.591Z,99411.00
2018-09-20T13:30:05.039Z,99402.00
2018-09-20T13:32:34.002Z,99408.00
2018-09-20T13:35:02.385Z,99402.00
2018-09-20T13:37:30.531Z,99400.00
2018-09-20T13:39:58.658Z,99390.00
2018-09-20T13:42:26.827Z,99391.00
2018-09-20T13:44:55.105Z,99391.00
2018-09-20T13:47:23.457Z,99387.00
2018-09-20T13:49:51.727Z,99387.00
2018-09-20T13:52:19.933Z,99382.00
2018-09-20T13:54:48.059Z,99375.00
2018-09-20T13:57:16.293Z,99372.00
2018-09-20T13:59:44.524Z,99367.00
2018-09-20T14:02:12.699Z,99365.00
2018-09-20T14:04:41.162Z,99367.00
2018-09-20T14:07:10.081Z,99366.00
2018-09-20T14:09:38.494Z,99367.00
2018-09-20T14:12:06.608Z,99365.00
2018-09-20T14:14:34.819Z,99367.00
2018-09-20T14:17:03.121Z,99362.00
2018-09-20T14:19:31.212Z,99361.00
2018-09-20T14:21:59.457Z,99356.00
2018-09-20T14:24:27.693Z,99353.00
2018-09-20T14:26:55.931Z,99350.00
2018-09-20T14:29:24.758Z,99348.00
2018-09-20T14:31:52.929Z,99350.00
2018-09-20T14:34:21.157Z,99344.00
2018-09-20T14:36:49.317Z,99336.00
2018-09-20T14:39:17.423Z,99336.00
2018-09-20T14:41:45.656Z,99340.00
2018-09-20T14:44:13.775Z,99346.00
2018-09-20T14:46:41.875Z,99338.00
2018-09-20T14:49:09.993Z,99335.00
2018-09-20T14:51:38.154Z,99330.00
2018-09-20T14:54:07.182Z,99328.00
2018-09-20T14:56:35.482Z,99330.00
2018-09-20T14:59:03.838Z,99330.00
2018-09-20T15:01:32.093Z,99324.00
2018-09-20T15:04:00.456Z,99321.00
2018-09-20T15:06:28.562Z,99324.00
2018-09-20T15:08:56.790Z,99329.00
2018-09-20T15:11:25.105Z,99331.00
2018-09-20T15:13:53.265Z,99328.00
2018-09-20T15:16:21.545Z,99328.00
2018-09-20T15:18:49.753Z,99326.00
2018-09-20T15:21:18.075Z,99327.00
2018-09-20T15:23:46.210Z,99322.00
2018-09-20T15:26:16.356Z,99323.00
2018-09-20T15:28:44.666Z,99316.00
2018-09-20T15:31:12.805Z,99320.00
2018-09-20T15:33:41.518Z,99322.00
2018-09-20T15:36:10.649Z,99323.00
2018-09-20T15:38:38.829Z,99317.00
2018-09-20T15:41:06.973Z,99324.00
2018-09-20T15:43:35.235Z,99322.00
2018-09-20T15:46:03.881Z,99320.00
2018-09-20T15:48:32.193Z,99319.00
2018-09-20T15:51:00.500Z,99321.00
2018-09-20T15:54:02.690Z,99318.00
2018-09-20T15:56:31.206Z,99315.00
2018-09-20T15:58:59.348Z,99314.00
2018-09-20T16:01:27.606Z,99314.00
2018-09-20T16:03:55.791Z,99313.00
2018-09-20T16:06:23.946Z,99311.00
2018-09-20T16:08:52.059Z,99313.00
2018-09-20T16:11:20.213Z,99316.00
2018-09-20T16:13:48.445Z,99313.00
2018-09-20T16:16:16.497Z,99310.00
2018-09-20T16:18:44.660Z,99305.00
2018-09-20T16:21:12.911Z,99307.00
2018-09-20T16:23:41.103Z,99306.00
2018-09-20T16:26:09.182Z,99305.00
2018-09-20T16:31:59.785Z,99305.00
2018-09-20T16:36:49.761Z,99308.00
2018-09-20T16:39:22.130Z,99304.00
2018-09-20T16:41:55.652Z,99301.00
2018-09-20T16:44:23.717Z,99298.00
2018-09-20T16:46:51.829Z,99305.00
2018-09-20T16:49:20.110Z,99300.00
2018-09-20T16:51:48.265Z,99301.00
2018-09-20T16:54:16.975Z,99296.00
2018-09-20T16:56:45.288Z,99293.00
2018-09-20T16:59:13.483Z,99289.00
2018-09-20T17:01:41.750Z,99288.00
2018-09-20T17:04:09.991Z,99293.00
2018-09-20T17:06:38.303Z,99291.00
2018-09-20T17:09:07.897Z,99291.00
2018-09-20T17:11:36.645Z,99292.00
2018-09-20T17:14:04.813Z,99296.00
2018-09-20T17:16:33.137Z,99301.00
2018-09-20T17:19:01.273Z,99301.00
2018-09-20T17:21:29.493Z,99301.00
2018-09-20T17:23:57.718Z,99302.00
2018-09-20T17:26:25.979Z,99302.00
2018-09-20T17:28:54.264Z,99302.00
2018-09-20T17:31:22.534Z,99307.00
2018-09-20T17:33:50.757Z,99303.00
2018-09-20T17:36:19.277Z,99300.00
2018-09-20T17:38:49.600Z,99302.00
2018-09-20T17:41:22.142Z,99304.00
2018-09-20T17:43:53.275Z,99304.00
2018-09-20T17:46:21.561Z,99302.00
2018-09-20T17:48:49.769Z,99305.00
2018-09-20T17:51:18.574Z,99306.00
2018-09-20T17:53:47.333Z,99302.00
2018-09-20T17:56:16.264Z,99305.00
2018-09-20T17:58:45.347Z,99306.00
2018-09-20T18:01:13.620Z,99301.00
2018-09-20T18:03:41.759Z,99310.00
2018-09-20T18:06:10.120Z,99315.00
2018-09-20T18:08:38.290Z,99310.00
2018-09-20T18:11:06.754Z,99312.00
2018-09-20T18:13:34.918Z,99313.00
2018-09-20T18:16:03.055Z,99308.00
2018-09-20T18:18:31.303Z,99314.00
2018-09-20T18:20:59.434Z,99307.00
2018-09-20T18:23:27.701Z,99313.00
2018-09-20T18:25:55.986Z,99314.00
2018-09-20T18:28:24.252Z,99315.00
2018-09-20T18:30:52.355Z,99317.00
2018-09-20T18:33:20.767Z,99322.00
2018-09-20T18:35:48.876Z,99318.00
2018-09-20T18:38:17.120Z,99323.00
2018-09-20T18:40:45.328Z,99326.00
2018-09-20T18:43:13.518Z,99324.00
2018-09-20T18:45:41.793Z,99323.00
2018-09-20T18:48:09.961Z,99324.00
2018-09-20T18:50:38.166Z,99324.00
2018-09-20T18:53:06.421Z,99322.00
2018-09-20T18:55:34.622Z,99324.00
2018-09-20T18:58:02.717Z,99320.00
2018-09-20T19:00:31.066Z,99327.00
2018-09-20T19:02:59.271Z,99323.00
2018-09-20T19:05:27.354Z,99322.00
2018-09-20T19:07:55.784Z,99323.00
2018-09-20T19:10:23.909Z,99321.00
2018-09-20T19:12:52.215Z,99319.00
2018-09-20T19:15:20.466Z,99323.00
2018-09-20T19:17:48.688Z,99318.00
2018-09-20T19:20:16.826Z,99318.00
2018-09-20T19:22:44.982Z,99314.00
2018-09-20T19:25:13.246Z,99316.00
2018-09-20T19:27:41.573Z,99319.00
2018-09-20T19:30:09.811Z,99316.00
2018-09-20T19:32:37.940Z,99309.00
2018-09-20T19:35:06.167Z,99310.00
2018-09-20T19:37:34.476Z,99314.00
2018-09-20T19:40:02.724Z,99312.00
2018-09-20T19:42:30.982Z,99311.00
2018-09-20T19:44:59.214Z,99315.00
2018-09-20T19:47:27.326Z,99315.00
2018-09-20T19:49:55.590Z,99318.00
2018-09-20T19:52:24.222Z,99325.00
2018-09-20T19:54:52.449Z,99319.00
2018-09-20T19:57:20.492Z,99318.00
2018-09-20T19:59:48.812Z,99313.00
2018-09-20T20:02:17.016Z,99313.00
2018-09-20T20:04:45.841Z,99313.00
2018-09-20T20:07:14.098Z,99314.00
2018-09-20T20:09:42.248Z,99311.00
2018-09-20T20:12:10.510Z,99315.00
2018-09-20T20:14:38.772Z,99316.00
2018-09-20T20:17:06.980Z,99311.00
2018-09-20T20:19:35.177Z,99306.00
2018-09-20T20:22:03.438Z,99300.00
2018-09-20T20:24:32.547Z,99301.00
2018-09-20T20:27:00.771Z,99303.00
2018-09-20T20:29:28.936Z,99298.00
2018-09-20T20:31:57.232Z,99295.00
2018-09-20T20:34:25.374Z,99294.00
2018-09-20T20:36:53.538Z,99291.00
2018-09-20T20:39:21.595Z,99285.00
2018-09-20T20:41:49.787Z,99286.00
2018-09-20T20:44:18.304Z,99284.00
2018-09-20T20:46:46.430Z,99284.00
2018-09-20T20:49:14.591Z,99281.00
2018-09-20T20:51:42.725Z,99284.00
2018-09-20T20:54:10.855Z,99281.00
2018-09-20T20:56:39.114Z,99280.00
2018-09-20T20:59:07.739Z,99279.00
2018-09-20T21:01:35.811Z,99282.00
2018-09-20T21:04:04.004Z,99278.00
2018-09-20T21:06:32.269Z,99278.00
2018-09-20T21:09:00.560Z,99277.00
2018-09-20T21:11:28.629Z,99274.00
2018-09-20T21:13:56.741Z,99269.00
2018-09-20T21:16:24.882Z,99268.00
2018-09-20T21:18:53.065Z,99268.00
2018-09-20T21:21:21.430Z,99259.00
2018-09-20T21:23:49.555Z,99269.00
2018-09-20T21:26:17.749Z,99269.00
2018-09-20T21:28:46.024Z,99266.00
2018-09-20T21:31:14.211Z,99262.00
2018-09-20T21:33:42.753Z,99263.00
2018-09-20T21:36:10.924Z,99270.00
2018-09-20T21:38:39.181Z,99260.00
2018-09-20T21:41:07.570Z,99260.00
2018-09-20T21:43:35.837Z,99256.00
2018-09-20T21:46:04.112Z,99257.00
2018-09-20T21:48:32.246Z,99256.00
2018-09-20T21:51:00.339Z,99249.00
2018-09-20T21:53:28.526Z,99256.00
2018-09-20T21:55:56.760Z,99255.00
2018-09-20T21:58:25.023Z,99259.00
2018-09-20T22:00:58.778Z,99257.00
2018-09-20T22:03:26.934Z,99258.00
2018-09-20T22:05:55.352Z,99251.00
2018-09-20T22:08:23.624Z,99252.00
2018-09-20T22:10:51.871Z,99247.00
2018-09-20T22:13:19.975Z,99243.00
2018-09-20T22:15:48.481Z,99246.00
2018-09-20T22:18:16.631Z,99237.00
2018-09-20T22:20:44.716Z,99235.00
2018-09-20T22:23:12.958Z,99236.00
2018-09-20T22:25:41.119Z,99231.00
2018-09-20T22:28:09.513Z,99231.00
2018-09-20T22:30:37.681Z,99228.00
2018-09-20T22:33:05.959Z,99225.00
2018-09-20T22:35:34.315Z,99223.00
2018-09-20T22:38:02.352Z,99222.00
2018-09-20T22:40:30.671Z,99217.00
2018-09-20T22:42:58.906Z,99208.00
2018-09-20T22:45:27.138Z,99210.00
2018-09-20T22:47:55.247Z,99214.00
2018-09-20T22:50:23.467Z,99218.00
2018-09-20T22:52:51.680Z,99213.00
2018-09-20T22:55:19.760Z,99211.00
2018-09-20T22:57:47.903Z,99211.00
2018-09-20T23:00:21.726Z,99209.00
2018-09-20T23:02:50.518Z,99214.00
2018-09-20T23:05:18.776Z,99213.00
2018-09-20T23:07:46.939Z,99210.00
2018-09-20T23:10:15.195Z,99212.00
2018-09-20T23:12:43.741Z,99210.00
2018-09-20T23:15:12.413Z,99209.00
2018-09-20T23:17:40.473Z,99209.00
2018-09-20T23:20:08.640Z,99209.00
2018-09-20T23:22:36.850Z,99210.00
2018-09-20T23:25:05.229Z,99207.00
2018-09-20T23:27:33.274Z,99206.00
2018-09-20T23:30:01.385Z,99204.00
2018-09-20T23:32:29.552Z,99196.00
2018-09-20T23:34:57.889Z,99197.00
2018-09-20T23:37:26.052Z,99197.00
2018-09-20T23:39:55.173Z,99192.00
2018-09-20T23:42:23.417Z,99192.00
2018-09-20T23:44:51.610Z,99186.00
2018-09-20T23:47:19.896Z,99183.00
2018-09-20T23:49:48.002Z,99176.00
2018-09-20T23:52:16.128Z,99180.00
2018-09-20T23:54:44.319Z,99172.00
2018-09-20T23:57:12.633Z,99176.00
2018-09-20T23:59:40.719Z,99173.00
